Time;durP1;ratioP1;P1;durP2;ratioP2;P2;SDS_P1;SDS_P2;PMS_P1;PMS_P2;Temp;Humidity;BMP_temperature;BMP_pressure;BME280_temperature;BME280_humidity;BME280_pressure;Samples;Min_cycle;Max_cycle;Signal;HPM_P1;HPM_P2
2022/04/12 00:00:56;;;;;;;31.67;17.15;;;4.80;99.90;;;;;;5009655;28;20053;-72
2022/04/12 00:03:22;;;;;;;44.58;23.35;;;4.70;99.90;;;;;;5010119;28;20038;-67
2022/04/12 00:05:48;;;;;;;52.72;27.27;;;4.60;99.90;;;;;;5009889;28;20022;-71
2022/04/12 00:08:14;;;;;;;28.38;14.15;;;4.70;99.90;;;;;;5009861;28;20034;-68
2022/04/12 00:10:40;;;;;;;22.52;13.27;;;4.70;99.90;;;;;;5007557;28;20026;-69
2022/04/12 00:13:07;;;;;;;26.65;14.07;;;4.70;99.90;;;;;;5006850;28;20030;-72
2022/04/12 00:15:32;;;;;;;30.02;15.85;;;4.70;99.90;;;;;;5007005;28;20032;-71
2022/04/12 00:20:43;;;;;;;31.80;14.15;;;4.70;99.90;;;;;;5006770;28;20496;-69
2022/04/12 00:23:14;;;;;;;25.08;13.95;;;4.70;99.90;;;;;;5009117;28;20042;-64
2022/04/12 00:25:44;;;;;;;23.80;13.27;;;4.70;99.90;;;;;;5010292;28;20369;-71
2022/04/12 00:28:10;;;;;;;25.75;13.77;;;4.70;99.90;;;;;;5009690;28;20029;-72
2022/04/12 00:30:36;;;;;;;23.80;12.57;;;4.70;99.90;;;;;;5025116;28;20395;-72
2022/04/12 00:33:03;;;;;;;26.10;12.90;;;4.70;99.90;;;;;;5007040;28;20101;-71
2022/04/12 00:35:29;;;;;;;35.65;18.77;;;4.70;99.90;;;;;;5007559;28;20056;-65
2022/04/12 00:37:55;;;;;;;40.15;20.92;;;4.70;99.90;;;;;;5007638;28;20021;-71
2022/04/12 00:40:24;;;;;;;45.08;24.02;;;4.70;99.90;;;;;;5007520;28;20033;-72
2022/04/12 00:42:50;;;;;;;27.45;14.93;;;4.70;99.90;;;;;;5008837;28;20783;-70
2022/04/12 00:45:17;;;;;;;28.98;16.92;;;4.70;99.90;;;;;;5008702;28;20065;-72
2022/04/12 00:47:44;;;;;;;28.58;17.02;;;4.70;99.90;;;;;;5009368;28;20037;-72
2022/04/12 00:50:11;;;;;;;26.00;12.90;;;4.60;99.90;;;;;;5010035;28;20132;-71
2022/04/12 00:52:44;;;;;;;20.83;11.20;;;4.50;99.90;;;;;;5010181;28;20065;-72
2022/04/12 00:55:10;;;;;;;20.38;11.25;;;4.40;99.90;;;;;;5010665;28;20145;-72
2022/04/12 00:57:37;;;;;;;18.35;9.82;;;4.40;99.90;;;;;;5010955;28;20034;-73
2022/04/12 01:00:07;;;;;;;18.55;9.63;;;4.40;99.90;;;;;;5010395;28;20109;-72
2022/04/12 01:02:34;;;;;;;17.55;8.13;;;4.40;99.90;;;;;;5008882;28;20065;-72
2022/04/12 01:05:01;;;;;;;18.98;8.75;;;4.20;99.90;;;;;;5009088;28;20033;-72
2022/04/12 01:07:28;;;;;;;14.32;7.82;;;4.20;99.90;;;;;;5010359;28;20084;-72
2022/04/12 01:09:55;;;;;;;19.98;9.60;;;4.00;99.90;;;;;;5010479;28;20030;-73
2022/04/12 01:12:21;;;;;;;23.40;10.15;;;3.90;99.90;;;;;;5010548;28;20026;-73
2022/04/12 01:14:48;;;;;;;23.52;10.68;;;3.90;99.90;;;;;;5010315;28;20750;-73
2022/04/12 01:17:17;;;;;;;27.63;12.00;;;4.00;99.90;;;;;;5010694;28;20030;-72
2022/04/12 01:19:43;;;;;;;29.08;11.70;;;4.00;99.90;;;;;;5010653;28;20103;-69
2022/04/12 01:22:13;;;;;;;24.80;10.85;;;4.10;99.90;;;;;;5010454;28;20061;-72
2022/04/12 01:24:39;;;;;;;34.92;12.23;;;4.10;99.90;;;;;;5010349;28;20107;-72
2022/04/12 01:27:05;;;;;;;36.75;12.45;;;4.20;99.90;;;;;;5010719;28;20068;-65
2022/04/12 01:29:34;;;;;;;39.95;16.17;;;4.20;99.90;;;;;;5010356;28;20518;-65
2022/04/12 01:32:01;;;;;;;64.07;15.35;;;4.30;99.90;;;;;;5025677;28;20026;-71
2022/04/12 01:34:28;;;;;;;43.53;15.90;;;4.30;99.90;;;;;;5010031;28;20026;-68
2022/04/12 01:36:54;;;;;;;38.55;16.83;;;4.20;99.90;;;;;;5010798;28;20052;-71
2022/04/12 01:39:20;;;;;;;25.60;10.75;;;4.20;99.90;;;;;;5010820;28;20029;-71
2022/04/12 01:41:46;;;;;;;28.35;11.93;;;4.20;99.90;;;;;;5010738;28;20384;-69
2022/04/12 01:44:12;;;;;;;24.45;10.10;;;4.20;99.90;;;;;;4999154;28;20041;-67
2022/04/12 01:46:38;;;;;;;21.67;10.13;;;4.20;99.90;;;;;;4989704;28;20018;-70
2022/04/12 01:49:04;;;;;;;22.98;11.20;;;4.20;99.90;;;;;;4993320;28;20034;-71
2022/04/12 01:51:30;;;;;;;20.85;10.65;;;4.30;99.90;;;;;;4989069;28;20065;-70
2022/04/12 01:53:56;;;;;;;21.90;10.20;;;4.30;99.90;;;;;;4989246;28;20034;-71
2022/04/12 01:56:22;;;;;;;19.60;10.60;;;4.20;99.90;;;;;;4989295;28;20461;-71
2022/04/12 01:58:48;;;;;;;21.05;10.65;;;4.20;99.90;;;;;;4989339;28;20038;-72
2022/04/12 02:01:13;;;;;;;24.88;11.55;;;4.20;99.90;;;;;;4989442;28;20030;-71
2022/04/12 02:03:40;;;;;;;17.10;10.00;;;4.20;99.90;;;;;;4993157;28;20531;-72
2022/04/12 02:06:06;;;;;;;20.42;9.27;;;4.10;99.90;;;;;;4993258;28;20026;-71
2022/04/12 02:08:32;;;;;;;18.98;10.55;;;4.00;99.90;;;;;;4992661;28;20366;-71
2022/04/12 02:10:58;;;;;;;19.15;10.70;;;4.00;99.90;;;;;;4992645;28;20033;-72
2022/04/12 02:13:24;;;;;;;27.17;15.35;;;4.00;99.90;;;;;;4993213;28;20504;-71
2022/04/12 02:15:49;;;;;;;35.70;16.67;;;4.00;99.90;;;;;;4992657;28;20026;-71
2022/04/12 02:18:15;;;;;;;34.70;15.55;;;4.10;99.90;;;;;;4992625;28;20032;-71
2022/04/12 02:20:41;;;;;;;37.03;14.27;;;4.10;99.90;;;;;;4992328;28;20090;-69
2022/04/12 02:23:07;;;;;;;30.90;15.02;;;4.10;99.90;;;;;;4994018;28;20465;-72
2022/04/12 02:25:33;;;;;;;39.08;14.40;;;4.10;99.90;;;;;;4992709;28;20034;-72
2022/04/12 02:27:59;;;;;;;56.67;23.10;;;4.10;99.90;;;;;;4992477;28;20034;-72
2022/04/12 02:30:25;;;;;;;75.80;17.33;;;4.10;99.90;;;;;;4992364;28;20080;-71
2022/04/12 02:32:50;;;;;;;57.78;21.35;;;4.10;99.90;;;;;;4992257;28;20061;-72
2022/04/12 02:35:16;;;;;;;40.38;16.23;;;4.10;99.90;;;;;;4992111;28;20025;-69
2022/04/12 02:37:42;;;;;;;62.92;16.73;;;4.00;99.90;;;;;;4992447;28;20527;-72
2022/04/12 02:40:08;;;;;;;73.50;17.88;;;4.00;99.90;;;;;;4991909;28;20037;-72
2022/04/12 02:42:34;;;;;;;24.17;11.45;;;4.00;99.90;;;;;;4991642;28;20101;-72
2022/04/12 02:45:00;;;;;;;25.92;10.95;;;3.90;99.90;;;;;;4992263;28;20105;-69
2022/04/12 02:47:28;;;;;;;19.30;10.93;;;3.80;99.90;;;;;;4992269;28;20030;-72
2022/04/12 02:49:54;;;;;;;22.45;11.40;;;3.80;99.90;;;;;;4992270;28;20495;-72
2022/04/12 02:52:20;;;;;;;22.98;12.40;;;3.80;99.90;;;;;;4991562;28;20022;-73
2022/04/12 02:54:45;;;;;;;27.38;12.38;;;3.70;99.90;;;;;;4992333;28;20042;-72
2022/04/12 02:57:11;;;;;;;18.85;11.10;;;3.60;99.90;;;;;;4997745;28;20065;-72
2022/04/12 02:59:37;;;;;;;16.73;10.73;;;3.50;99.90;;;;;;4997153;28;20028;-72
2022/04/12 03:02:03;;;;;;;17.02;10.07;;;3.50;99.90;;;;;;4994175;28;20065;-71
2022/04/12 03:04:29;;;;;;;16.85;9.45;;;3.40;99.90;;;;;;4992219;28;20033;-71
2022/04/12 03:06:55;;;;;;;16.25;9.35;;;3.30;99.90;;;;;;4991389;28;20474;-73
2022/04/12 03:09:22;;;;;;;18.23;9.80;;;3.40;99.90;;;;;;4991966;28;20479;-70
2022/04/12 03:11:48;;;;;;;18.13;8.95;;;3.30;99.90;;;;;;4991731;28;20026;-72
2022/04/12 03:14:14;;;;;;;16.40;9.25;;;3.20;99.90;;;;;;4990271;28;20042;-71
2022/04/12 03:16:40;;;;;;;16.77;9.32;;;3.20;99.90;;;;;;4993867;28;20026;-68
2022/04/12 03:19:06;;;;;;;19.00;9.07;;;3.20;99.90;;;;;;4991849;28;20045;-71
2022/04/12 03:21:31;;;;;;;15.00;8.27;;;3.20;99.90;;;;;;5006212;28;20038;-72
2022/04/12 03:23:57;;;;;;;17.27;9.70;;;3.20;99.90;;;;;;4991458;28;20042;-71
2022/04/12 03:26:23;;;;;;;16.25;8.73;;;3.20;99.90;;;;;;4991781;28;20034;-71
2022/04/12 03:28:49;;;;;;;15.30;9.55;;;3.20;99.90;;;;;;4991844;28;20049;-72
2022/04/12 03:31:15;;;;;;;17.98;10.05;;;3.30;99.90;;;;;;4991350;28;20461;-71
2022/04/12 03:33:41;;;;;;;19.73;10.57;;;3.30;99.90;;;;;;4991331;28;20022;-73
2022/04/12 03:36:06;;;;;;;20.23;10.20;;;3.40;99.90;;;;;;4991353;28;20110;-72
2022/04/12 03:38:35;;;;;;;22.00;12.75;;;3.40;99.90;;;;;;4991080;28;20019;-71
2022/04/12 03:41:03;;;;;;;24.83;11.18;;;3.40;99.90;;;;;;4991265;28;20038;-72
2022/04/12 03:43:29;;;;;;;14.93;9.43;;;3.50;99.90;;;;;;4990436;28;20037;-71
2022/04/12 03:45:54;;;;;;;18.00;9.30;;;3.50;99.90;;;;;;4990889;28;20018;-68
2022/04/12 03:48:20;;;;;;;19.60;10.57;;;3.50;99.90;;;;;;4990841;28;20607;-72
2022/04/12 03:50:46;;;;;;;21.83;12.23;;;3.60;99.90;;;;;;5006606;28;20050;-71
2022/04/12 03:53:12;;;;;;;19.25;11.05;;;3.60;99.90;;;;;;4990692;28;20451;-71
2022/04/12 03:55:40;;;;;;;18.73;10.77;;;3.60;99.90;;;;;;4991200;28;20026;-70
2022/04/12 03:58:07;;;;;;;17.55;10.95;;;3.50;99.90;;;;;;4991193;28;20532;-73
2022/04/12 04:00:34;;;;;;;19.90;11.70;;;3.40;99.90;;;;;;4990709;28;20033;-72
2022/04/12 04:03:00;;;;;;;29.95;11.88;;;3.50;99.90;;;;;;4990708;28;20062;-72
2022/04/12 04:05:26;;;;;;;30.95;19.42;;;3.60;99.90;;;;;;4990771;28;20058;-73
2022/04/12 04:07:53;;;;;;;48.05;29.80;;;3.60;99.90;;;;;;4990609;28;20436;-72
2022/04/12 04:10:20;;;;;;;32.10;20.33;;;3.70;99.90;;;;;;4990012;28;20026;-73
2022/04/12 04:12:46;;;;;;;24.63;15.93;;;4.00;99.90;;;;;;4990284;28;20026;-69
2022/04/12 04:15:13;;;;;;;30.60;19.08;;;4.30;99.90;;;;;;4991509;28;20050;-71
2022/04/12 04:17:46;;;;;;;33.28;17.27;;;4.80;99.90;;;;;;5008825;28;20113;-72
2022/04/12 04:20:15;;;;;;;25.08;11.77;;;5.30;99.90;;;;;;5007197;28;20026;-70
2022/04/12 04:22:42;;;;;;;49.80;12.15;;;5.70;99.90;;;;;;5010374;28;20115;-71
2022/04/12 04:25:09;;;;;;;23.75;13.35;;;6.20;99.90;;;;;;5007016;28;20481;-69
2022/04/12 04:27:35;;;;;;;20.65;12.77;;;6.50;99.90;;;;;;4991774;28;20022;-71
2022/04/12 04:30:03;;;;;;;24.73;11.95;;;6.90;99.90;;;;;;5010150;28;20040;-74
2022/04/12 04:32:30;;;;;;;21.90;11.68;;;7.50;99.90;;;;;;4991383;28;20120;-70
2022/04/12 04:34:56;;;;;;;37.33;21.48;;;7.70;99.90;;;;;;4994478;28;20027;-67
2022/04/12 04:37:37;;;;;;;68.28;40.03;;;8.30;99.90;;;;;;4998864;28;20395;-70
2022/04/12 04:40:21;;;;;;;57.58;32.35;;;8.30;99.60;;;;;;4989615;28;20963;-74
2022/04/12 04:42:52;;;;;;;39.20;22.63;;;8.40;99.90;;;;;;4992436;28;20104;-73
2022/04/12 04:45:18;;;;;;;34.83;19.27;;;9.20;99.90;;;;;;4992060;28;20478;-73
2022/04/12 04:47:53;;;;;;;28.17;16.65;;;9.70;99.20;;;;;;4991168;28;20026;-72
2022/04/12 04:50:21;;;;;;;30.33;14.98;;;10.40;99.20;;;;;;5007388;28;20065;-73
2022/04/12 04:52:47;;;;;;;23.95;14.35;;;10.70;97.50;;;;;;5011285;28;20065;-72
2022/04/12 04:55:14;;;;;;;21.48;14.00;;;11.10;95.40;;;;;;5011091;28;20484;-71
2022/04/12 04:57:41;;;;;;;29.02;13.85;;;11.40;96.20;;;;;;5010878;28;20033;-70
2022/04/12 05:00:15;;;;;;;20.20;13.00;;;12.00;94.20;;;;;;5011027;28;20050;-72
2022/04/12 05:02:44;;;;;;;26.95;15.88;;;12.20;92.80;;;;;;5010570;28;20084;-69
2022/04/12 05:05:10;;;;;;;25.63;14.60;;;11.90;88.30;;;;;;5010382;28;20061;-70
2022/04/12 05:07:37;;;;;;;22.88;15.35;;;12.40;91.20;;;;;;5010781;28;20713;-73
2022/04/12 05:10:04;;;;;;;27.05;16.08;;;12.70;85.50;;;;;;5011056;28;20484;-72
2022/04/12 05:12:30;;;;;;;23.35;13.05;;;13.60;85.20;;;;;;5010277;28;20083;-72
2022/04/12 05:14:56;;;;;;;22.42;12.40;;;12.80;87.00;;;;;;5010282;28;20030;-72
2022/04/12 05:17:26;;;;;;;20.42;11.30;;;11.40;92.20;;;;;;5016550;28;20030;-71
2022/04/12 05:19:52;;;;;;;19.95;11.27;;;10.60;95.10;;;;;;5010553;28;20030;-73
2022/04/12 05:22:18;;;;;;;22.92;11.88;;;10.00;98.70;;;;;;5010780;28;20430;-73
2022/04/12 05:24:48;;;;;;;21.77;11.40;;;9.60;99.80;;;;;;5010370;28;20038;-72
2022/04/12 05:27:14;;;;;;;27.08;13.60;;;9.40;99.90;;;;;;5010678;28;20056;-72
2022/04/12 05:29:40;;;;;;;25.73;15.43;;;9.20;99.90;;;;;;5010156;28;20037;-72
2022/04/12 05:32:09;;;;;;;27.88;13.88;;;8.90;99.90;;;;;;5010129;28;20644;-72
2022/04/12 05:34:41;;;;;;;25.95;14.65;;;8.90;99.90;;;;;;5010272;28;20025;-71
2022/04/12 05:37:07;;;;;;;32.90;15.75;;;9.00;99.90;;;;;;5011770;28;20037;-72
2022/04/12 05:39:33;;;;;;;23.10;13.10;;;9.10;99.90;;;;;;5014156;28;20060;-73
2022/04/12 05:42:00;;;;;;;24.42;14.65;;;9.00;99.90;;;;;;5014281;28;20146;-71
2022/04/12 05:44:33;;;;;;;27.25;14.18;;;9.30;99.90;;;;;;5014292;28;20040;-72
2022/04/12 05:47:00;;;;;;;23.63;12.90;;;9.20;99.90;;;;;;5014174;28;20121;-67
2022/04/12 05:49:26;;;;;;;27.65;15.77;;;9.50;99.90;;;;;;5014376;28;20053;-72
2022/04/12 05:51:53;;;;;;;26.48;15.63;;;9.60;99.90;;;;;;5014289;28;20472;-73
2022/04/12 05:54:19;;;;;;;33.03;16.65;;;9.80;99.90;;;;;;5014157;28;20384;-73
2022/04/12 05:56:45;;;;;;;28.65;16.38;;;9.60;99.90;;;;;;5014036;28;20029;-72
2022/04/12 05:59:11;;;;;;;27.52;16.88;;;9.80;99.70;;;;;;5014138;28;20106;-72
2022/04/12 06:01:38;;;;;;;32.33;21.10;;;10.00;98.90;;;;;;5013952;28;20036;-71
2022/04/12 06:04:05;;;;;;;36.30;22.02;;;9.90;98.30;;;;;;5013928;28;20034;-68
2022/04/12 06:06:32;;;;;;;37.63;19.58;;;10.00;97.70;;;;;;5013478;28;20032;-71
2022/04/12 06:08:59;;;;;;;34.92;21.45;;;10.00;99.20;;;;;;5013835;28;20033;-72
2022/04/12 06:11:25;;;;;;;34.88;21.55;;;9.70;99.80;;;;;;5013833;28;20026;-72
2022/04/12 06:13:51;;;;;;;36.13;21.23;;;9.70;99.90;;;;;;5013829;28;20109;-73
2022/04/12 06:16:17;;;;;;;30.10;20.52;;;9.80;99.90;;;;;;5013549;28;20076;-72
2022/04/12 06:18:43;;;;;;;33.50;20.92;;;10.10;99.50;;;;;;5013266;28;20026;-73
2022/04/12 06:21:08;;;;;;;33.45;20.75;;;10.30;99.50;;;;;;5013489;28;20034;-74
2022/04/12 06:23:34;;;;;;;37.70;21.95;;;10.30;97.70;;;;;;5013422;28;20033;-72
2022/04/12 06:26:00;;;;;;;28.40;17.48;;;10.40;98.30;;;;;;5013002;28;20571;-71
2022/04/12 06:28:26;;;;;;;27.40;14.85;;;10.50;97.90;;;;;;5013591;28;20064;-70
2022/04/12 06:30:54;;;;;;;26.75;14.18;;;9.90;99.10;;;;;;5013395;28;20563;-73
2022/04/12 06:33:20;;;;;;;26.73;15.50;;;10.20;98.90;;;;;;5012308;28;20026;-73
2022/04/12 06:35:46;;;;;;;22.25;13.98;;;9.90;99.30;;;;;;5013279;28;20022;-72
2022/04/12 06:38:11;;;;;;;23.48;11.60;;;9.70;99.90;;;;;;5013514;28;20072;-73
2022/04/12 06:40:38;;;;;;;22.33;12.65;;;9.60;98.70;;;;;;5013564;28;20416;-72
2022/04/12 06:43:04;;;;;;;19.23;11.70;;;10.00;99.90;;;;;;5013168;28;20365;-72
2022/04/12 06:45:30;;;;;;;22.08;12.60;;;10.20;99.50;;;;;;5011892;28;20072;-73
2022/04/12 06:47:58;;;;;;;29.48;12.23;;;10.30;99.20;;;;;;5012880;28;20022;-73
2022/04/12 06:50:27;;;;;;;30.13;14.13;;;10.50;98.40;;;;;;5013055;28;20483;-73
2022/04/12 06:52:54;;;;;;;28.98;15.27;;;10.50;94.20;;;;;;5012102;28;20431;-73
2022/04/12 06:55:20;;;;;;;33.75;17.52;;;10.80;96.10;;;;;;5013032;28;20060;-73
2022/04/12 06:57:46;;;;;;;38.72;17.67;;;11.20;93.30;;;;;;5012864;28;20088;-73
2022/04/12 07:00:12;;;;;;;35.25;18.30;;;11.40;95.00;;;;;;5011158;28;20308;-72
2022/04/12 07:02:38;;;;;;;29.50;17.88;;;11.70;91.50;;;;;;5009571;28;20038;-73
2022/04/12 07:05:05;;;;;;;36.00;18.08;;;11.80;91.20;;;;;;5012122;28;20083;-71
2022/04/12 07:07:31;;;;;;;24.63;14.48;;;11.90;89.10;;;;;;4992938;28;20019;-72
2022/04/12 07:09:57;;;;;;;26.08;15.00;;;12.30;91.20;;;;;;4992562;28;20057;-75
2022/04/12 07:12:24;;;;;;;39.95;15.43;;;12.10;92.10;;;;;;4993028;28;20031;-73
2022/04/12 07:14:50;;;;;;;28.98;14.38;;;12.20;90.30;;;;;;4997715;28;20025;-72
2022/04/12 07:17:16;;;;;;;26.15;15.77;;;12.20;89.40;;;;;;5012419;28;20026;-73
2022/04/12 07:19:44;;;;;;;28.05;13.75;;;12.40;89.90;;;;;;5011879;28;20024;-72
2022/04/12 07:22:10;;;;;;;24.60;13.98;;;12.70;88.90;;;;;;5012121;28;20022;-71
2022/04/12 07:24:36;;;;;;;21.73;12.57;;;12.90;88.40;;;;;;5011618;28;20065;-74
2022/04/12 07:27:02;;;;;;;23.13;14.27;;;12.80;91.30;;;;;;5012498;28;20030;-73
2022/04/12 07:29:29;;;;;;;23.30;14.27;;;12.60;86.10;;;;;;5011415;28;20025;-73
2022/04/12 07:31:56;;;;;;;21.83;12.38;;;12.30;85.70;;;;;;5010646;28;20029;-73
2022/04/12 07:34:22;;;;;;;23.00;11.63;;;12.70;83.60;;;;;;5012063;28;20025;-71
2022/04/12 07:36:53;;;;;;;22.88;11.38;;;13.20;84.20;;;;;;5011209;28;20034;-74
2022/04/12 07:39:23;;;;;;;26.27;12.57;;;13.60;82.90;;;;;;5011439;28;20028;-73
2022/04/12 07:41:49;;;;;;;21.75;12.80;;;13.90;85.80;;;;;;5009378;28;20025;-72
2022/04/12 07:44:16;;;;;;;28.20;13.45;;;13.90;81.20;;;;;;5009893;28;20092;-73
2022/04/12 07:46:42;;;;;;;28.10;14.68;;;14.30;84.20;;;;;;5009966;28;20109;-73
2022/04/12 07:49:08;;;;;;;26.65;13.23;;;14.50;76.80;;;;;;5011104;28;20415;-71
2022/04/12 07:51:35;;;;;;;19.73;11.25;;;14.90;75.70;;;;;;5009571;28;20546;-73
2022/04/12 07:54:02;;;;;;;27.17;14.18;;;15.10;77.90;;;;;;5008221;28;20040;-74
2022/04/12 07:56:28;;;;;;;26.00;13.00;;;15.10;74.70;;;;;;5010291;28;20038;-72
2022/04/12 07:58:54;;;;;;;23.88;13.75;;;15.40;71.90;;;;;;5011515;28;20080;-74
2022/04/12 08:01:20;;;;;;;24.73;11.77;;;15.10;65.70;;;;;;5006212;28;20566;-73
2022/04/12 08:03:47;;;;;;;23.75;12.20;;;15.40;67.10;;;;;;5008951;28;20038;-74
2022/04/12 08:06:13;;;;;;;20.20;11.00;;;15.10;67.90;;;;;;5010923;28;20101;-73
2022/04/12 08:08:39;;;;;;;25.73;12.60;;;15.00;68.00;;;;;;5011553;28;20034;-74
2022/04/12 08:11:05;;;;;;;20.75;12.05;;;15.30;71.90;;;;;;5010249;28;20062;-73
2022/04/12 08:13:32;;;;;;;24.20;12.45;;;15.70;70.80;;;;;;5011645;28;20033;-74
2022/04/12 08:15:58;;;;;;;22.65;11.18;;;16.00;67.30;;;;;;5011037;28;20086;-74
2022/04/12 08:18:24;;;;;;;18.38;9.77;;;16.10;64.20;;;;;;5010829;28;20068;-73
2022/04/12 08:20:50;;;;;;;20.95;10.23;;;16.30;68.30;;;;;;5011634;28;20034;-71
2022/04/12 08:23:17;;;;;;;19.70;9.73;;;16.20;65.60;;;;;;5011299;28;20547;-74
2022/04/12 08:25:43;;;;;;;16.52;8.60;;;16.40;66.00;;;;;;5010736;28;20492;-74
2022/04/12 08:28:09;;;;;;;21.33;8.32;;;16.40;63.80;;;;;;5006890;28;20030;-73
2022/04/12 08:30:36;;;;;;;16.02;7.68;;;16.40;63.90;;;;;;5008502;28;20030;-75
2022/04/12 08:33:03;;;;;;;15.77;6.25;;;16.50;65.90;;;;;;5006660;28;20026;-73
2022/04/12 08:35:28;;;;;;;12.30;5.30;;;16.80;62.60;;;;;;5009030;28;20033;-74
2022/04/12 08:37:55;;;;;;;7.95;4.85;;;16.90;63.90;;;;;;5007842;28;20233;-73
2022/04/12 08:40:21;;;;;;;9.63;4.60;;;17.10;65.40;;;;;;5008553;28;20018;-73
2022/04/12 08:42:47;;;;;;;8.95;4.78;;;17.10;65.20;;;;;;5008654;28;20026;-74
2022/04/12 08:45:14;;;;;;;10.90;4.75;;;17.20;64.60;;;;;;5010541;28;20105;-74
2022/04/12 08:47:41;;;;;;;10.00;4.97;;;17.20;63.20;;;;;;5005565;28;20014;-73
2022/04/12 08:50:09;;;;;;;11.45;4.95;;;17.30;62.50;;;;;;5008369;28;20053;-74
2022/04/12 08:52:38;;;;;;;7.63;3.55;;;17.50;66.30;;;;;;5006358;28;20415;-74
2022/04/12 08:55:06;;;;;;;7.05;3.50;;;17.60;63.10;;;;;;5007647;28;20041;-74
2022/04/12 08:57:32;;;;;;;6.30;3.50;;;17.60;63.60;;;;;;5010419;28;20049;-74
2022/04/12 08:59:58;;;;;;;7.05;3.25;;;17.50;58.80;;;;;;5009117;28;20081;-72
2022/04/12 09:02:24;;;;;;;6.65;3.30;;;17.60;56.50;;;;;;5003771;28;20026;-71
2022/04/12 09:04:50;;;;;;;7.90;3.97;;;17.60;59.70;;;;;;5010356;28;20029;-74
2022/04/12 09:07:17;;;;;;;5.28;3.58;;;17.60;61.00;;;;;;5010343;28;20605;-73
2022/04/12 09:09:44;;;;;;;6.43;3.60;;;17.70;62.30;;;;;;5010216;28;20087;-75
2022/04/12 09:12:14;;;;;;;6.93;2.90;;;17.80;60.50;;;;;;5010734;28;20091;-74
2022/04/12 09:14:52;;;;;;;7.50;3.42;;;17.70;56.00;;;;;;5009761;28;20519;-75
2022/04/12 09:17:34;;;;;;;7.32;3.45;;;17.60;60.60;;;;;;5010678;28;20040;-73
2022/04/12 09:20:00;;;;;;;6.25;3.08;;;17.70;61.40;;;;;;5005783;28;20041;-74
2022/04/12 09:22:28;;;;;;;10.18;4.32;;;18.00;59.60;;;;;;5010129;28;20113;-71
2022/04/12 09:24:58;;;;;;;5.82;3.17;;;17.80;57.60;;;;;;5010852;28;20065;-74
2022/04/12 09:27:26;;;;;;;6.57;3.40;;;18.00;59.80;;;;;;5010662;28;20534;-72
2022/04/12 09:29:54;;;;;;;7.05;3.55;;;18.00;59.40;;;;;;5010466;28;20120;-73
2022/04/12 09:32:22;;;;;;;6.32;3.35;;;18.00;61.90;;;;;;5010719;28;20030;-73
2022/04/12 09:34:47;;;;;;;6.65;3.30;;;17.80;57.20;;;;;;5010369;28;20065;-74
2022/04/12 09:37:21;;;;;;;7.25;3.03;;;17.80;60.60;;;;;;5010502;28;20095;-75
2022/04/12 09:40:00;;;;;;;8.38;3.40;;;17.90;60.10;;;;;;5010585;28;20113;-70
2022/04/12 09:42:50;;;;;;;7.47;3.00;;;17.90;61.60;;;;;;5010458;28;20423;-74
2022/04/12 09:45:24;;;;;;;3.78;2.47;;;18.00;60.10;;;;;;5010517;28;20453;-76
2022/04/12 09:47:52;;;;;;;3.83;2.53;;;18.00;59.80;;;;;;5010238;28;20540;-73
2022/04/12 09:50:22;;;;;;;6.15;2.67;;;18.00;59.20;;;;;;5010258;28;20544;-74
2022/04/12 09:52:52;;;;;;;6.90;2.90;;;18.00;56.80;;;;;;5009290;28;20514;-75
2022/04/12 09:55:36;;;;;;;3.22;2.30;;;18.10;58.90;;;;;;5010140;28;20515;-75
2022/04/12 09:58:03;;;;;;;4.85;2.40;;;17.80;54.20;;;;;;5008383;28;20113;-74
2022/04/12 10:00:30;;;;;;;5.93;2.55;;;17.50;55.20;;;;;;5008796;28;20468;-74
2022/04/12 10:03:01;;;;;;;5.75;2.63;;;17.40;55.00;;;;;;5010079;28;20113;-74
2022/04/12 10:05:28;;;;;;;6.50;2.65;;;17.50;55.20;;;;;;5008510;28;20024;-75
2022/04/12 10:08:00;;;;;;;5.32;2.88;;;17.70;55.90;;;;;;5009744;28;20396;-74
2022/04/12 10:10:26;;;;;;;7.57;2.92;;;17.90;56.40;;;;;;5009298;28;20037;-73
2022/04/12 10:12:58;;;;;;;4.95;2.45;;;17.90;58.90;;;;;;5008576;28;20022;-73
2022/04/12 10:15:26;;;;;;;4.68;2.75;;;17.90;55.40;;;;;;4999831;28;20034;-74
2022/04/12 10:17:53;;;;;;;4.60;2.55;;;17.60;55.40;;;;;;5006628;28;20037;-72
2022/04/12 10:20:19;;;;;;;7.70;2.30;;;17.40;54.70;;;;;;4991676;28;20026;-71
2022/04/12 10:22:46;;;;;;;4.50;2.60;;;17.50;55.30;;;;;;5010011;28;20026;-72
2022/04/12 10:25:17;;;;;;;5.50;2.25;;;17.50;55.80;;;;;;5010791;28;20385;-67
2022/04/12 10:27:43;;;;;;;3.10;2.10;;;17.50;55.20;;;;;;5013816;28;20032;-71
2022/04/12 10:30:15;;;;;;;5.95;2.53;;;17.50;55.10;;;;;;5010467;28;20465;-66
2022/04/12 10:33:00;;;;;;;6.27;2.20;;;17.60;57.20;;;;;;4993715;28;20441;-71
2022/04/12 10:35:42;;;;;;;4.20;2.25;;;17.80;59.80;;;;;;5010905;28;20040;-72
2022/04/12 10:38:09;;;;;;;3.97;2.20;;;18.00;59.40;;;;;;5003525;28;20026;-72
2022/04/12 10:40:36;;;;;;;6.88;2.28;;;18.00;55.60;;;;;;5007205;28;20152;-72
2022/04/12 10:43:02;;;;;;;7.88;2.25;;;18.00;55.30;;;;;;4992164;28;20542;-70
2022/04/12 10:45:33;;;;;;;4.65;2.30;;;17.90;58.60;;;;;;4992271;28;20473;-72
2022/04/12 10:48:03;;;;;;;5.70;3.13;;;18.00;59.70;;;;;;4992285;28;20034;-73
2022/04/12 10:50:41;;;;;;;16.33;7.97;;;18.10;58.20;;;;;;4992018;28;20448;-68
2022/04/12 10:53:07;;;;;;;4.18;2.00;;;18.30;59.00;;;;;;4996668;28;20030;-73
2022/04/12 10:55:41;;;;;;;2.20;1.70;;;18.40;58.30;;;;;;5007739;28;20045;-73
2022/04/12 10:58:28;;;;;;;1.88;1.50;;;18.50;54.40;;;;;;5011283;28;20047;-72
2022/04/12 11:00:54;;;;;;;1.92;1.50;;;18.50;56.80;;;;;;4999370;28;20026;-72
2022/04/12 11:03:45;;;;;;;4.03;2.05;;;18.50;55.80;;;;;;4997676;28;20029;-72
2022/04/12 11:06:24;;;;;;;3.22;1.80;;;18.50;60.60;;;;;;4997908;28;20156;-72
2022/04/12 11:09:10;;;;;;;6.90;2.45;;;18.10;55.60;;;;;;4993582;28;20054;-70
2022/04/12 11:11:41;;;;;;;3.92;1.90;;;18.30;58.60;;;;;;4997219;28;20030;-71
2022/04/12 11:14:33;;;;;;;2.70;1.95;;;18.40;59.80;;;;;;5005122;28;20029;-72
2022/04/12 11:17:01;;;;;;;3.78;2.10;;;18.40;56.20;;;;;;5012214;28;20062;-72
2022/04/12 11:19:27;;;;;;;3.65;2.00;;;18.40;59.50;;;;;;5012591;28;20030;-72
2022/04/12 11:21:56;;;;;;;3.22;2.00;;;18.60;58.60;;;;;;5027898;28;20038;-72
2022/04/12 11:24:24;;;;;;;6.10;2.33;;;18.30;55.20;;;;;;5012857;28;20117;-73
2022/04/12 11:27:06;;;;;;;4.75;1.95;;;18.30;57.70;;;;;;5012643;28;20101;-72
2022/04/12 11:29:33;;;;;;;3.63;1.90;;;18.20;55.30;;;;;;5012602;28;20113;-71
2022/04/12 11:31:59;;;;;;;5.18;2.45;;;18.20;56.50;;;;;;5012772;28;20022;-71
2022/04/12 11:34:27;;;;;;;3.70;1.65;;;18.30;57.40;;;;;;5011110;28;20033;-73
2022/04/12 11:37:00;;;;;;;1.85;1.60;;;18.20;56.90;;;;;;5010640;28;20030;-71
2022/04/12 11:39:29;;;;;;;2.03;1.40;;;18.10;58.40;;;;;;5012258;28;20068;-72
2022/04/12 11:42:06;;;;;;;3.40;1.98;;;18.00;57.60;;;;;;5027122;28;20480;-71
2022/04/12 11:44:32;;;;;;;3.67;1.92;;;18.00;57.40;;;;;;5012879;28;20038;-73
2022/04/12 11:47:03;;;;;;;7.20;2.22;;;17.90;57.20;;;;;;5012710;28;20037;-73
2022/04/12 11:49:36;;;;;;;3.40;1.88;;;17.70;56.00;;;;;;5012449;28;20117;-71
2022/04/12 11:52:05;;;;;;;5.25;2.08;;;17.60;56.60;;;;;;5012692;28;20044;-71
2022/04/12 11:54:36;;;;;;;3.92;1.88;;;17.80;56.20;;;;;;5012238;28;20029;-71
2022/04/12 11:57:05;;;;;;;4.70;2.03;;;17.80;56.80;;;;;;5012178;28;20037;-73
2022/04/12 11:59:51;;;;;;;4.00;1.92;;;17.60;55.20;;;;;;5012339;28;20021;-71
2022/04/12 12:02:22;;;;;;;2.58;1.70;;;17.60;56.00;;;;;;5011804;28;20034;-72
2022/04/12 12:04:50;;;;;;;5.55;1.55;;;17.70;57.40;;;;;;5011859;28;20046;-73
2022/04/12 12:07:17;;;;;;;2.70;1.58;;;17.60;57.50;;;;;;5010572;28;20439;-73
2022/04/12 12:09:58;;;;;;;2.88;1.63;;;17.80;56.70;;;;;;5012057;28;20030;-73
2022/04/12 12:12:38;;;;;;;3.28;1.40;;;17.90;55.80;;;;;;5010456;28;20028;-73
2022/04/12 12:15:22;;;;;;;3.55;1.95;;;17.90;55.70;;;;;;5009919;28;20034;-71
2022/04/12 12:17:51;;;;;;;4.43;1.42;;;18.00;58.10;;;;;;5011809;28;20421;-68
2022/04/12 12:20:18;;;;;;;2.67;1.52;;;18.10;59.20;;;;;;5011304;28;20022;-71
2022/04/12 12:22:47;;;;;;;2.97;1.85;;;18.20;55.50;;;;;;5011868;28;20030;-67
2022/04/12 12:25:19;;;;;;;2.63;2.03;;;18.30;59.00;;;;;;5011607;28;20535;-71
2022/04/12 12:27:51;;;;;;;2.33;1.42;;;18.40;58.00;;;;;;5011624;28;20372;-71
2022/04/12 12:30:19;;;;;;;4.65;1.48;;;18.50;55.90;;;;;;5011430;28;20061;-72
2022/04/12 12:32:45;;;;;;;6.43;1.77;;;18.60;55.40;;;;;;5011423;28;20105;-72
2022/04/12 12:35:14;;;;;;;3.20;1.77;;;18.70;58.50;;;;;;5011660;28;20030;-67
2022/04/12 12:37:41;;;;;;;2.78;1.58;;;18.60;55.50;;;;;;5011707;28;20113;-66
2022/04/12 12:40:19;;;;;;;1.92;1.52;;;18.40;57.50;;;;;;5011505;28;20030;-69
2022/04/12 12:42:45;;;;;;;2.35;1.15;;;18.40;54.70;;;;;;5011376;28;20117;-66
2022/04/12 12:45:12;;;;;;;2.45;1.30;;;18.20;53.30;;;;;;5011354;28;20079;-72